METAR Data
IDs: Format: Raw Decoded Include TAF

Data at: 0851 UTC 10 Dec 2022

METAR for:KCKZ (Perkasie/Pennridge A, PA, US)
Text:KCKZ 100835Z AUTO 34003KT 10SM CLR M03/M09 A3030 RMK AO2
Temperature: -3.0°C ( 27°F)
Dewpoint: -9.0°C ( 16°F) [RH = 63%]
Pressure (altimeter):30.30 inches Hg (1026.2 mb)
Winds:from the NNW (340 degrees) at 3 MPH (3 knots; 1.5 m/s)
Visibility:10 or more sm (16+ km)
Ceiling:at least 12,000 feet AGL
Clouds:sky clear below 12,000 feet AGL
QC Flag:automated observation with no human augmentation